ADDS METAR Data INFO
IDs: Format: Raw Decoded Include TAF

Data at: 0307 UTC 17 Jan 2018

KLAM 170255Z AUTO 21004KT 10SM CLR M04/M09 A3035 RMK AO2 T10411095
KLAM 170235Z AUTO 21004KT 10SM CLR M04/M09 A3035 RMK AO2 T10401095
KLAM 170215Z AUTO 21004KT 10SM CLR M04/M09 A3035 RMK AO2 T10401095
KLAM 170155Z AUTO 21004KT 10SM CLR M04/M09 A3035 RMK AO2 T10401095
KLAM 170135Z AUTO 21004KT 10SM CLR M04/M09 A3035 RMK AO2 T10381095
KLAM 170115Z AUTO 00000KT 10SM CLR M04/M09 A3035 RMK AO2 T10371095
KLAM 170055Z AUTO 00000KT 10SM CLR M03/M09 A3035 RMK AO2 T10321093
KLAM 170035Z AUTO 00000KT 10SM CLR M03/M09 A3035 RMK AO2 T10321092
KLAM 170015Z AUTO 09003KT 10SM CLR M03/M09 A3034 RMK AO2 T10311093
KLAM 162355Z AUTO 07003KT 10SM CLR M03/M09 A3035 RMK AO2 T10281092 11013 21059
KLAM 162335Z AUTO 07003KT 10SM CLR M02/M09 A3034 RMK AO2 T10241091
KLAM 162315Z AUTO 08003KT 10SM CLR M02/M09 A3035 RMK AO2 T10211091
KLAM 162255Z AUTO 08004KT 10SM CLR M02/M09 A3035 RMK AO2 T10201090
KLAM 162235Z AUTO 10005KT 10SM CLR M01/M09 A3034 RMK AO2 T10141090
KLAM 162215Z AUTO 12003KT 10SM CLR M02/M09 A3035 RMK AO2 T10201089
KLAM 162155Z AUTO 11003KT 10SM CLR M02/M09 A3035 RMK AO2 T10191087
KLAM 162135Z AUTO 07004KT 10SM CLR M03/M09 A3036 RMK AO2 T10271089
KLAM 162115Z AUTO 12004KT 10SM CLR M02/M09 A3037 RMK AO2 T10251086
KLAM 162055Z AUTO 07004KT 10SM CLR M03/M09 A3037 RMK AO2 T10281087
KLAM 162035Z AUTO 05003KT 10SM CLR M03/M09 A3038 RMK AO2 T10331086
KLAM 162015Z AUTO 09005KT 10SM SCT017 M03/M09 A3038 RMK AO2 T10331086
KLAM 161955Z AUTO 00000KT 10SM OVC017 M04/M08 A3039 RMK AO2 T10381085
KLAM 161935Z AUTO 12003KT 10SM OVC017 M04/M09 A3040 RMK AO2 T10451086
KLAM 161915Z AUTO 06003KT 10SM OVC015 M05/M09 A3042 RMK AO2 T10481086
KLAM 161855Z AUTO 00000KT 10SM OVC015 M05/M08 A3042 RMK AO2 T10481085
KLAM 161835Z AUTO 12003KT 10SM OVC013 M05/M09 A3044 RMK AO2 T10541086
KLAM 161815Z AUTO 09003KT 10SM OVC013 M06/M09 A3045 RMK AO2 T10561086
KLAM 161755Z AUTO 00000KT 10SM OVC011 M06/M08 A3045 RMK AO2 T10581084 11058 21086
KLAM 161735Z AUTO 00000KT 10SM OVC011 M06/M08 A3045 RMK AO2 T10611084
KLAM 161715Z AUTO 00000KT 10SM OVC011 M06/M08 A3046 RMK AO2 T10621081
KLAM 161655Z AUTO 17003KT 10SM OVC011 M06/M08 A3046 RMK AO2 T10651084
KLAM 161635Z AUTO 00000KT 10SM OVC011 M07/M08 A3046 RMK AO2 T10671083
KLAM 161615Z AUTO 00000KT 10SM OVC011 M07/M09 A3045 RMK AO2 T10711086
KLAM 161555Z AUTO 00000KT 10SM OVC011 M07/M09 A3044 RMK AO2 T10721087
KLAM 161535Z AUTO 00000KT 10SM OVC009 M07/M09 A3044 RMK AO2 T10741088
KLAM 161515Z AUTO 00000KT 10SM OVC009 M07/M09 A3044 RMK AO2 T10751088
KLAM 161455Z AUTO 00000KT 10SM OVC009 M08/M09 A3043 RMK AO2 T10771093
KLAM 161435Z AUTO 27004KT 10SM OVC009 M08/M08 A3042 RMK AO2 T10801084
KLAM 161415Z AUTO 27004KT 10SM OVC009 M08/M08 A3041 RMK AO2 T10801080
KLAM 161355Z AUTO 24005KT 7SM OVC009 M08/M08 A3041 RMK AO2 T10811081
KLAM 161335Z AUTO 25004KT 4SM BR OVC007 M08/M08 A3041 RMK AO2 T10831083
KLAM 161315Z AUTO 00000KT 7SM OVC007 M08/M08 A3042 RMK AO2 T10851085
KLAM 161255Z AUTO 00000KT 10SM OVC007 M08/M09 A3040 RMK AO2 T10851087
KLAM 161235Z AUTO 17005KT 10SM OVC007 M09/M09 A3039 RMK AO2 T10861090
KLAM 161215Z AUTO 19005KT 10SM OVC007 M08/M08 A3039 RMK AO2 T10851085
KLAM 161155Z AUTO 18004KT 10SM OVC007 M08/M08 A3040 RMK AO2 T10851085 11060 21085
KLAM 161135Z AUTO 18005KT 10SM OVC007 M08/M08 A3039 RMK AO2 T10851085
KLAM 161115Z AUTO 17007KT 10SM OVC007 M08/M08 A3040 RMK AO2 T10851085
KLAM 161055Z AUTO 18007KT 10SM OVC007 M08/M08 A3040 RMK AO2 T10841084
KLAM 161035Z AUTO 19008KT 10SM OVC007 M08/M08 A3040 RMK AO2 T10841084
KLAM 161015Z AUTO 19006KT 10SM OVC007 M08/M08 A3040 RMK AO2 T10821085
KLAM 160955Z AUTO 19006KT 10SM OVC007 M08/M08 A3041 RMK AO2 T10821084
KLAM 160935Z AUTO 19011G15KT 10SM OVC009 M08/M09 A3040 RMK AO2 T10821092
KLAM 160915Z AUTO 18006KT 10SM OVC009 M08/M09 A3040 RMK AO2 T10811095
KLAM 160855Z AUTO 18010G16KT 10SM OVC009 M08/M09 A3039 RMK AO2 T10811095
KLAM 160835Z AUTO 18012KT 10SM OVC009 M08/M10 A3038 RMK AO2 T10801096
KLAM 160815Z AUTO 19010KT 10SM OVC009 M08/M09 A3037 RMK AO2 T10781095
KLAM 160755Z AUTO 19014G18KT 10SM OVC009 M07/M09 A3037 RMK AO2 T10741092
KLAM 160735Z AUTO 19014G22KT 10SM OVC009 M07/M09 A3037 RMK AO2 T10711090
KLAM 160715Z AUTO 19013G21KT 10SM OVC009 M07/M09 A3037 RMK AO2 T10681087
KLAM 160655Z AUTO 19013G20KT 10SM OVC009 M07/M09 A3037 RMK AO2 T10661087
KLAM 160635Z AUTO 19013G20KT 10SM OVC009 M06/M08 A3037 RMK AO2 T10621083
KLAM 160615Z AUTO 19014G19KT 10SM OVC009 M06/M08 A3037 RMK AO2 T10621081
KLAM 160555Z AUTO 19016G20KT 10SM OVC009 M06/M08 A3037 RMK AO2 T10601078 10005 21060 400701060
KLAM 160535Z AUTO 19016G23KT 10SM OVC009 M06/M07 A3037 RMK AO2 T10581075
KLAM 160515Z AUTO 19015G21KT 10SM OVC009 M06/M07 A3036 RMK AO2 T10571073
KLAM 160455Z AUTO 18018G22KT 10SM OVC009 M05/M07 A3036 RMK AO2 T10551071
KLAM 160435Z AUTO 18012G17KT 10SM OVC009 M05/M07 A3036 RMK AO2 T10521070
KLAM 160415Z AUTO 17016G20KT 10SM OVC009 M05/M07 A3034 RMK AO2 T10471067
KLAM 160355Z AUTO 19014G17KT 10SM OVC009 M04/M06 A3034 RMK AO2 T10421060
KLAM 160335Z AUTO 19009G18KT 10SM BKN009 OVC012 M04/M06 A3032 RMK AO2 T10401058
KLAM 160315Z AUTO 19016G22KT 10SM BKN009 OVC012 M04/M05 A3030 RMK AO2 T10391055
KLAM 160255Z AUTO 19010G16KT 10SM OVC009 M04/M05 A3031 RMK AO2 T10391055
KLAM 160235Z AUTO 19018G23KT 10SM OVC011 M04/M05 A3029 RMK AO2 T10361055
KLAM 160215Z AUTO 19016G21KT 10SM BKN011 OVC016 M03/M05 A3030 RMK AO2 T10311055
KLAM 160155Z AUTO 18014G24KT 10SM BKN014 BKN021 M03/M05 A3029 RMK AO2 T10281055
KLAM 160135Z AUTO 20012G16KT 10SM BKN017 BKN023 M02/M06 A3029 RMK AO2 T10241057
KLAM 160115Z AUTO 18012G21KT 10SM CLR M02/M06 A3027 RMK AO2 T10201058
KLAM 160055Z AUTO 18014G21KT 10SM CLR M01/M06 A3025 RMK AO2 T10131060
KLAM 160035Z AUTO 18015G20KT 10SM CLR M01/M06 A3025 RMK AO2 T10091060
KLAM 160015Z AUTO 18011G16KT 10SM CLR 00/M06 A3025 RMK AO2 T00001060
KLAM 152355Z AUTO 18011G17KT 10SM CLR 01/M06 A3025 RMK AO2 T00051060 10070 20005
KLAM 152335Z AUTO 18011KT 10SM CLR 01/M06 A3023 RMK AO2 T00141060
KLAM 152315Z AUTO 16008G14KT 10SM CLR 02/M06 A3023 RMK AO2 T00211060
KLAM 152255Z AUTO 16006KT 10SM CLR 03/M06 A3022 RMK AO2 T00301060
KLAM 152235Z AUTO 15011G18KT 10SM CLR 03/M06 A3020 RMK AO2 T00341062
KLAM 152215Z AUTO 15013G18KT 10SM CLR 04/M06 A3019 RMK AO2 T00431065
KLAM 152155Z AUTO 15016G20KT 10SM CLR 06/M07 A3018 RMK AO2 T00561069
KLAM 152135Z AUTO 17015G19KT 10SM CLR 07/M09 A3017 RMK AO2 T00671086
KLAM 152115Z AUTO 18012G16KT 150V210 10SM CLR 07/M09 A3018 RMK AO2 T00661088
KLAM 152055Z AUTO 19014G19KT 10SM CLR 06/M09 A3018 RMK AO2 T00601089
KLAM 152035Z AUTO 16014G18KT 10SM CLR 06/M08 A3018 RMK AO2 T00551085
KLAM 152015Z AUTO 19010G16KT 10SM CLR 04/M08 A3018 RMK AO2 T00431083
KLAM 151955Z AUTO 19009G19KT 10SM CLR 04/M08 A3019 RMK AO2 T00431079
KLAM 151935Z AUTO 18013G18KT 10SM CLR 04/M07 A3019 RMK AO2 T00381070
KLAM 151915Z AUTO 17013G16KT 10SM CLR 05/M08 A3021 RMK AO2 T00451078
KLAM 151855Z AUTO 17007KT 10SM CLR 04/M07 A3022 RMK AO2 T00431070
KLAM 151835Z AUTO 17007KT 10SM CLR 03/M07 A3024 RMK AO2 T00301072
KLAM 151815Z AUTO 17006KT 10SM CLR 01/M07 A3025 RMK AO2 T00131075
KLAM 151755Z AUTO 10003KT 10SM CLR 01/M08 A3026 RMK AO2 T00071081 10022 21013
KLAM 151735Z AUTO 17005KT 10SM CLR 02/M07 A3026 RMK AO2 T00171072
KLAM 151715Z AUTO 16003KT 10SM CLR 02/M07 A3026 RMK AO2 T00221073
KLAM 151655Z AUTO 21003KT 10SM CLR 02/M07 A3025 RMK AO2 T00161075
KLAM 151635Z AUTO 23005KT 10SM CLR 00/M08 A3025 RMK AO2 T00031078
KLAM 151615Z AUTO 00000KT 10SM CLR 00/M08 A3025 RMK AO2 T10021081
KLAM 151555Z AUTO 00000KT 10SM CLR 00/M08 A3024 RMK AO2 T10031077
KLAM 151535Z AUTO 00000KT 10SM CLR M01/M08 A3023 RMK AO2 T10081081
KLAM 151515Z AUTO 00000KT 10SM CLR M01/M08 A3022 RMK AO2 T10101081